createdAt,value
2018-07-19T00:01:10.152Z,18.20
2018-07-19T00:03:38.569Z,18.10
2018-07-19T00:06:07.005Z,18.00
2018-07-19T00:08:35.406Z,17.80
2018-07-19T00:11:04.088Z,17.70
2018-07-19T00:13:32.492Z,17.80
2018-07-19T00:16:01.029Z,17.70
2018-07-19T00:18:29.529Z,17.60
2018-07-19T00:20:58.442Z,17.60
2018-07-19T00:23:27.468Z,17.60
2018-07-19T00:25:57.052Z,17.30
2018-07-19T00:28:25.724Z,17.20
2018-07-19T00:30:54.544Z,17.10
2018-07-19T00:33:23.312Z,17.10
2018-07-19T00:35:52.433Z,17.00
2018-07-19T00:38:20.939Z,16.80
2018-07-19T00:40:49.411Z,16.70
2018-07-19T00:43:17.983Z,16.60
2018-07-19T00:45:46.374Z,16.60
2018-07-19T00:48:14.796Z,16.60
2018-07-19T00:50:43.205Z,16.60
2018-07-19T00:53:11.588Z,16.60
2018-07-19T00:55:40.789Z,16.50
2018-07-19T00:58:09.192Z,16.50
2018-07-19T01:00:37.617Z,16.50
2018-07-19T01:03:06.292Z,16.50
2018-07-19T01:05:34.684Z,16.50
2018-07-19T01:08:03.128Z,16.40
2018-07-19T01:10:31.784Z,16.30
2018-07-19T01:13:00.198Z,16.20
2018-07-19T01:15:28.606Z,16.10
2018-07-19T01:17:57.037Z,16.10
2018-07-19T01:20:25.433Z,16.20
2018-07-19T01:22:53.839Z,16.10
2018-07-19T01:25:22.249Z,16.10
2018-07-19T01:27:50.672Z,15.90
2018-07-19T01:30:19.092Z,15.90
2018-07-19T01:32:47.500Z,16.00
2018-07-19T01:37:43.979Z,16.10
2018-07-19T01:40:12.389Z,16.20
2018-07-19T01:42:43.928Z,16.10
2018-07-19T01:45:13.048Z,16.00
2018-07-19T01:47:41.728Z,15.80
2018-07-19T01:50:11.105Z,15.80
2018-07-19T01:52:39.524Z,15.70
2018-07-19T01:55:08.572Z,15.80
2018-07-19T01:57:36.976Z,15.70
2018-07-19T02:00:05.997Z,15.50
2018-07-19T02:02:34.384Z,15.40
2018-07-19T02:05:02.886Z,15.30
2018-07-19T02:07:31.264Z,15.30
2018-07-19T02:09:59.652Z,15.10
2018-07-19T02:12:28.254Z,15.00
2018-07-19T02:14:56.626Z,15.10
2018-07-19T02:17:25.024Z,15.10
2018-07-19T02:19:53.415Z,15.10
2018-07-19T02:22:21.805Z,15.20
2018-07-19T02:24:50.200Z,15.20
2018-07-19T02:27:18.596Z,15.30
2018-07-19T02:29:47.016Z,15.20
2018-07-19T02:32:15.724Z,15.20
2018-07-19T02:34:44.116Z,15.30
2018-07-19T02:37:12.512Z,15.00
2018-07-19T02:39:40.960Z,15.00
2018-07-19T02:42:09.656Z,14.80
2018-07-19T02:44:38.109Z,14.70
2018-07-19T02:47:06.583Z,14.70
2018-07-19T02:49:35.048Z,14.70
2018-07-19T02:52:03.539Z,14.90
2018-07-19T02:54:31.980Z,14.80
2018-07-19T02:57:01.200Z,14.80
2018-07-19T02:59:29.613Z,14.70
2018-07-19T03:01:58.068Z,14.70
2018-07-19T03:04:26.472Z,14.70
2018-07-19T03:06:54.893Z,14.80
2018-07-19T03:09:23.316Z,14.70
2018-07-19T03:11:51.695Z,14.70
2018-07-19T03:14:20.076Z,14.60
2018-07-19T03:16:48.476Z,14.50
2018-07-19T03:21:45.004Z,14.50
2018-07-19T03:24:13.397Z,14.60
2018-07-19T03:29:10.065Z,14.50
2018-07-19T03:31:38.467Z,14.60
2018-07-19T03:34:06.996Z,14.60
2018-07-19T03:36:35.401Z,14.60
2018-07-19T03:39:04.846Z,14.60
2018-07-19T03:41:33.236Z,14.60
2018-07-19T03:44:01.632Z,14.50
2018-07-19T03:46:30.060Z,14.50
2018-07-19T03:48:58.459Z,14.40
2018-07-19T03:51:26.864Z,14.40
2018-07-19T03:53:55.276Z,14.40
2018-07-19T03:56:23.669Z,14.30
2018-07-19T03:58:52.053Z,14.20
2018-07-19T04:01:20.460Z,14.20
2018-07-19T04:03:55.481Z,14.20
2018-07-19T04:06:23.896Z,14.30
2018-07-19T04:08:52.304Z,14.50
2018-07-19T04:11:20.700Z,14.60
2018-07-19T04:13:49.343Z,14.60
2018-07-19T04:16:18.196Z,14.70
2018-07-19T04:18:46.798Z,14.80
2018-07-19T04:21:15.590Z,14.70
2018-07-19T04:23:44.070Z,14.80
2018-07-19T04:26:12.644Z,14.90
2018-07-19T04:28:41.034Z,15.00
2018-07-19T04:31:09.436Z,14.90
2018-07-19T04:33:37.841Z,15.00
2018-07-19T04:36:06.264Z,15.00
2018-07-19T04:38:34.677Z,15.00
2018-07-19T04:41:03.072Z,15.00
2018-07-19T04:43:31.475Z,15.10
2018-07-19T04:45:59.928Z,15.30
2018-07-19T04:48:28.316Z,15.50
2018-07-19T04:50:56.705Z,15.70
2018-07-19T04:53:25.335Z,15.80
2018-07-19T04:55:53.737Z,16.00
2018-07-19T04:58:22.128Z,16.00
2018-07-19T05:00:50.524Z,16.10
2018-07-19T05:03:18.902Z,16.20
2018-07-19T05:05:47.316Z,16.40
2018-07-19T05:08:15.744Z,16.60
2018-07-19T05:10:44.129Z,16.70
2018-07-19T05:13:12.616Z,16.80
2018-07-19T05:15:41.048Z,16.90
2018-07-19T05:18:09.453Z,17.00
2018-07-19T05:20:37.873Z,17.00
2018-07-19T05:23:06.325Z,17.10
2018-07-19T05:25:34.725Z,17.20
2018-07-19T05:28:03.339Z,17.40
2018-07-19T05:30:31.844Z,17.70
2018-07-19T05:33:00.256Z,17.70
2018-07-19T05:35:28.779Z,17.70
2018-07-19T05:37:57.185Z,17.70
2018-07-19T05:40:25.627Z,17.70
2018-07-19T05:42:54.052Z,17.80
2018-07-19T05:45:22.444Z,17.80
2018-07-19T05:47:51.173Z,17.90
2018-07-19T05:50:19.603Z,18.10
2018-07-19T05:52:48.116Z,18.30
2018-07-19T05:55:16.550Z,18.50
2018-07-19T05:57:44.950Z,18.50
2018-07-19T06:00:13.572Z,18.50
2018-07-19T06:02:41.992Z,18.50
2018-07-19T06:05:10.459Z,18.60
2018-07-19T06:07:38.874Z,18.60
2018-07-19T06:10:07.339Z,18.60
2018-07-19T06:12:35.875Z,18.60
2018-07-19T06:15:04.705Z,18.50
2018-07-19T06:17:33.092Z,18.60
2018-07-19T06:20:01.508Z,18.60
2018-07-19T06:22:29.899Z,18.80
2018-07-19T06:24:58.308Z,18.90
2018-07-19T06:27:26.747Z,19.10
2018-07-19T06:29:55.176Z,19.10
2018-07-19T06:32:23.566Z,19.20
2018-07-19T06:34:51.974Z,19.30
2018-07-19T06:37:20.535Z,19.30
2018-07-19T06:39:49.012Z,19.30
2018-07-19T06:42:17.520Z,19.50
2018-07-19T06:44:45.924Z,19.50
2018-07-19T06:47:14.336Z,19.50
2018-07-19T06:49:43.492Z,19.60
2018-07-19T06:52:11.913Z,19.70
2018-07-19T06:54:41.045Z,19.60
2018-07-19T06:57:09.465Z,19.70
2018-07-19T06:59:37.908Z,19.80
2018-07-19T07:02:06.815Z,19.80
2018-07-19T07:04:35.232Z,19.90
2018-07-19T07:07:03.885Z,20.20
2018-07-19T07:09:32.301Z,20.60
2018-07-19T07:12:00.702Z,20.90
2018-07-19T07:14:29.116Z,21.10
2018-07-19T07:16:57.528Z,21.20
2018-07-19T07:19:25.952Z,21.30
2018-07-19T07:21:54.351Z,21.20
2018-07-19T07:24:22.787Z,21.40
2018-07-19T07:26:51.574Z,21.40
2018-07-19T07:29:20.052Z,21.40
2018-07-19T07:31:48.537Z,21.20
2018-07-19T07:34:16.988Z,21.30
2018-07-19T07:36:45.402Z,21.70
2018-07-19T07:39:13.797Z,21.80
2018-07-19T07:41:42.215Z,22.00
2018-07-19T07:44:10.686Z,22.20
2018-07-19T07:46:39.098Z,22.40
2018-07-19T07:49:07.501Z,22.20
2018-07-19T07:51:35.949Z,22.10
2018-07-19T07:54:04.479Z,22.10
2018-07-19T07:56:33.040Z,22.20
2018-07-19T07:59:01.483Z,22.40
2018-07-19T08:01:29.915Z,22.30
2018-07-19T08:03:58.299Z,22.30
2018-07-19T08:06:26.744Z,22.50
2018-07-19T08:08:55.306Z,22.60
2018-07-19T08:11:23.701Z,22.80
2018-07-19T08:13:52.136Z,23.20
2018-07-19T08:18:48.661Z,23.40
2018-07-19T08:21:17.072Z,23.60
2018-07-19T08:23:45.544Z,23.50
2018-07-19T08:26:13.971Z,23.40
2018-07-19T08:28:42.365Z,23.50
2018-07-19T08:31:10.833Z,23.50
2018-07-19T08:33:39.289Z,23.50
2018-07-19T08:36:07.738Z,23.60
2018-07-19T08:38:36.114Z,23.70
2018-07-19T08:41:04.628Z,23.90
2018-07-19T08:43:33.048Z,24.10
2018-07-19T08:46:01.465Z,24.20
2018-07-19T08:48:29.863Z,24.20
2018-07-19T08:50:58.308Z,24.10
2018-07-19T08:53:26.785Z,24.30
2018-07-19T08:55:55.200Z,24.50
2018-07-19T08:58:23.658Z,24.90
2018-07-19T09:03:21.232Z,25.00
2018-07-19T09:05:49.880Z,24.80
2018-07-19T09:08:18.323Z,24.90
2018-07-19T09:10:46.747Z,25.00
2018-07-19T09:13:15.147Z,25.00
2018-07-19T09:15:43.573Z,25.30
2018-07-19T09:18:11.963Z,25.50
2018-07-19T09:20:40.371Z,25.60
2018-07-19T09:23:08.832Z,25.60
2018-07-19T09:25:37.236Z,25.90
2018-07-19T09:28:05.824Z,26.70
2018-07-19T09:30:34.212Z,27.00
2018-07-19T09:33:02.657Z,27.60
2018-07-19T09:35:31.132Z,28.70
2018-07-19T09:37:59.748Z,29.40
2018-07-19T09:40:28.104Z,29.20
2018-07-19T09:42:56.499Z,29.50
2018-07-19T09:45:24.893Z,30.00
2018-07-19T09:47:53.266Z,30.00
2018-07-19T09:50:21.794Z,31.10
2018-07-19T09:52:50.193Z,31.30
2018-07-19T09:55:18.556Z,31.10
2018-07-19T09:57:46.937Z,30.80
2018-07-19T10:00:19.607Z,30.20
2018-07-19T10:02:48.034Z,30.40
2018-07-19T10:05:16.427Z,30.30
2018-07-19T10:07:44.983Z,30.50
2018-07-19T10:10:13.547Z,30.60
2018-07-19T10:12:41.881Z,30.60
2018-07-19T10:15:10.379Z,30.70
2018-07-19T10:17:38.774Z,30.40
2018-07-19T10:20:07.173Z,31.10
2018-07-19T10:22:35.564Z,30.70
2018-07-19T10:25:04.089Z,30.70
2018-07-19T10:27:32.528Z,30.50
2018-07-19T10:30:01.070Z,30.80
2018-07-19T10:32:29.553Z,30.20
2018-07-19T10:34:57.862Z,29.90
2018-07-19T10:37:26.297Z,30.30
2018-07-19T10:39:54.701Z,30.70
2018-07-19T10:42:23.737Z,29.70
2018-07-19T10:47:20.458Z,27.50
2018-07-19T10:49:48.894Z,27.40
2018-07-19T10:52:17.276Z,27.30
2018-07-19T10:54:46.301Z,27.20
2018-07-19T10:57:14.716Z,26.90
2018-07-19T10:59:43.286Z,27.10
2018-07-19T11:02:11.681Z,27.50
2018-07-19T11:04:40.096Z,27.50
2018-07-19T11:07:08.612Z,28.20
2018-07-19T11:09:37.306Z,28.40
2018-07-19T11:12:05.748Z,29.20
2018-07-19T11:14:34.136Z,30.80
2018-07-19T11:17:02.557Z,31.60
2018-07-19T11:19:30.961Z,31.70
2018-07-19T11:21:59.341Z,31.60
2018-07-19T11:24:27.768Z,31.00
2018-07-19T11:26:56.191Z,29.50
2018-07-19T11:29:24.681Z,29.20
2018-07-19T11:31:53.069Z,28.60
2018-07-19T11:34:21.460Z,28.00
2018-07-19T11:37:10.431Z,27.70
2018-07-19T11:42:07.268Z,27.90
2018-07-19T11:44:35.696Z,28.10
2018-07-19T11:47:04.156Z,27.70
2018-07-19T11:49:32.604Z,28.10
2018-07-19T11:52:01.024Z,29.70
2018-07-19T11:54:29.539Z,30.70
2018-07-19T11:56:57.946Z,31.20
2018-07-19T11:59:26.473Z,30.80
2018-07-19T12:01:54.841Z,30.50
2018-07-19T12:04:23.305Z,30.30
2018-07-19T12:06:51.951Z,30.40
2018-07-19T12:09:20.440Z,31.10
2018-07-19T12:11:48.855Z,31.70
2018-07-19T12:14:17.349Z,32.20
2018-07-19T12:16:45.798Z,31.50
2018-07-19T12:19:14.236Z,30.60
2018-07-19T12:21:42.708Z,30.00
2018-07-19T12:24:11.116Z,29.30
2018-07-19T12:26:39.674Z,29.20
2018-07-19T12:29:08.063Z,29.90
2018-07-19T12:31:36.419Z,31.00
2018-07-19T12:34:04.901Z,31.90
2018-07-19T12:36:33.329Z,31.20
2018-07-19T12:39:01.810Z,30.60
2018-07-19T12:41:30.504Z,31.30
2018-07-19T12:43:58.868Z,31.70
2018-07-19T12:46:27.236Z,31.30
2018-07-19T12:48:56.184Z,31.40
2018-07-19T12:51:24.589Z,31.10
2018-07-19T12:53:52.962Z,30.90
2018-07-19T12:56:21.697Z,30.80
2018-07-19T12:58:50.174Z,29.60
2018-07-19T13:01:18.602Z,29.50
2018-07-19T13:03:47.093Z,29.00
2018-07-19T13:06:15.581Z,29.00
2018-07-19T13:08:44.066Z,29.40
2018-07-19T13:11:13.263Z,29.60
2018-07-19T13:13:42.605Z,29.50
2018-07-19T13:16:11.836Z,29.20
2018-07-19T13:18:40.229Z,29.20
2018-07-19T13:21:08.627Z,29.20
2018-07-19T13:23:37.153Z,29.30
2018-07-19T13:26:05.715Z,29.40
2018-07-19T13:28:34.126Z,29.30
2018-07-19T13:31:02.709Z,29.00
2018-07-19T13:33:31.390Z,28.80
2018-07-19T13:36:00.145Z,28.80
2018-07-19T13:38:28.570Z,29.30
2018-07-19T13:43:25.784Z,29.50
2018-07-19T13:45:54.267Z,29.40
2018-07-19T13:48:22.771Z,29.90
2018-07-19T13:50:51.242Z,30.20
2018-07-19T13:53:40.921Z,30.40
2018-07-19T13:56:09.927Z,30.60
2018-07-19T13:58:38.892Z,30.90
2018-07-19T14:01:08.429Z,31.30
2018-07-19T14:03:36.947Z,31.40
2018-07-19T14:06:05.647Z,31.60
2018-07-19T14:08:34.136Z,31.70
2018-07-19T14:11:02.630Z,31.90
2018-07-19T14:13:31.142Z,31.50
2018-07-19T14:15:59.563Z,31.10
2018-07-19T14:18:28.029Z,30.60
2018-07-19T14:20:56.461Z,30.10
2018-07-19T14:23:24.833Z,29.90
2018-07-19T14:25:53.609Z,29.50
2018-07-19T14:28:22.201Z,29.10
2018-07-19T14:30:50.769Z,28.70
2018-07-19T14:33:19.136Z,28.60
2018-07-19T14:35:47.633Z,28.50
2018-07-19T14:38:16.013Z,28.50
2018-07-19T14:40:44.416Z,28.40
2018-07-19T14:43:15.634Z,28.70
2018-07-19T14:45:44.003Z,28.90
2018-07-19T14:48:12.495Z,29.10
2018-07-19T14:50:40.941Z,29.00
2018-07-19T14:53:09.328Z,29.00
2018-07-19T14:55:37.718Z,29.00
2018-07-19T14:58:06.156Z,28.80
2018-07-19T15:00:34.652Z,28.60
2018-07-19T15:03:03.094Z,28.60
2018-07-19T15:05:31.548Z,28.60
2018-07-19T15:07:59.950Z,28.90
2018-07-19T15:10:28.352Z,29.20
2018-07-19T15:15:24.907Z,29.90
2018-07-19T15:17:53.235Z,30.30
2018-07-19T15:20:21.745Z,30.40
2018-07-19T15:22:50.132Z,30.50
2018-07-19T15:25:18.494Z,30.60
2018-07-19T15:30:15.148Z,31.00
2018-07-19T15:32:43.540Z,31.10
2018-07-19T15:35:11.916Z,31.10
2018-07-19T15:37:40.331Z,31.20
2018-07-19T15:40:08.721Z,31.00
2018-07-19T15:42:37.342Z,30.50
2018-07-19T15:45:06.933Z,30.40
2018-07-19T15:47:35.395Z,30.30
2018-07-19T15:50:04.018Z,30.30
2018-07-19T15:55:00.720Z,29.70
2018-07-19T15:57:29.168Z,29.30
2018-07-19T16:02:26.047Z,28.70
2018-07-19T16:04:54.416Z,28.50
2018-07-19T16:07:22.896Z,28.50
2018-07-19T16:09:51.436Z,28.50
2018-07-19T16:12:19.945Z,28.40
2018-07-19T16:14:48.379Z,28.40
2018-07-19T16:17:16.780Z,28.40
2018-07-19T16:19:45.184Z,28.40
2018-07-19T16:22:13.860Z,28.50
2018-07-19T16:27:10.356Z,28.80
2018-07-19T16:29:38.741Z,29.00
2018-07-19T16:32:07.132Z,29.00
2018-07-19T16:34:35.729Z,28.80
2018-07-19T16:37:04.085Z,28.80
2018-07-19T16:39:32.556Z,28.70
2018-07-19T16:42:01.232Z,28.50
2018-07-19T16:44:29.656Z,28.30
2018-07-19T16:46:58.100Z,28.20
2018-07-19T16:49:26.601Z,28.30
2018-07-19T16:51:54.979Z,28.40
2018-07-19T16:54:23.617Z,28.40
2018-07-19T16:56:52.027Z,28.40
2018-07-19T16:59:20.492Z,28.50
2018-07-19T17:01:48.969Z,28.60
2018-07-19T17:04:17.378Z,28.60
2018-07-19T17:06:45.828Z,28.70
2018-07-19T17:09:14.585Z,28.80
2018-07-19T17:14:11.612Z,29.30
2018-07-19T17:16:40.036Z,29.30
2018-07-19T17:19:08.468Z,29.30
2018-07-19T17:21:36.888Z,29.40
2018-07-19T17:24:05.467Z,29.30
2018-07-19T17:29:02.947Z,29.20
2018-07-19T17:31:31.376Z,29.20
2018-07-19T17:33:59.835Z,29.10
2018-07-19T17:36:28.246Z,28.90
2018-07-19T17:38:56.682Z,28.90
2018-07-19T17:41:25.109Z,28.80
2018-07-19T17:43:53.575Z,28.80
2018-07-19T17:46:22.066Z,28.60
2018-07-19T17:48:50.595Z,28.50
2018-07-19T17:51:19.161Z,28.40
2018-07-19T17:53:47.581Z,28.30
2018-07-19T17:56:16.036Z,28.20
2018-07-19T17:58:44.685Z,28.10
2018-07-19T18:03:41.384Z,28.00
2018-07-19T18:06:10.013Z,27.90
2018-07-19T18:08:38.453Z,27.90
2018-07-19T18:11:07.449Z,27.80
2018-07-19T18:13:35.867Z,27.70
2018-07-19T18:16:04.349Z,27.50
2018-07-19T18:18:33.033Z,27.40
2018-07-19T18:21:01.510Z,27.30
2018-07-19T18:23:30.647Z,27.20
2018-07-19T18:26:00.349Z,27.20
2018-07-19T18:28:28.743Z,27.00
2018-07-19T18:30:57.266Z,26.90
2018-07-19T18:33:25.668Z,26.80
2018-07-19T18:35:54.912Z,26.70
2018-07-19T18:38:23.404Z,26.60
2018-07-19T18:40:51.823Z,26.50
2018-07-19T18:43:20.557Z,26.40
2018-07-19T18:45:48.974Z,26.40
2018-07-19T18:48:17.392Z,26.20
2018-07-19T18:50:45.982Z,26.20
2018-07-19T18:53:14.605Z,26.10
2018-07-19T18:55:43.105Z,25.90
2018-07-19T18:58:11.518Z,25.80
2018-07-19T19:00:40.006Z,25.70
2018-07-19T19:03:09.044Z,25.60
2018-07-19T19:05:37.524Z,25.50
2018-07-19T19:08:06.289Z,25.40
2018-07-19T19:10:34.824Z,25.30
2018-07-19T19:13:03.287Z,25.20
2018-07-19T19:15:31.718Z,25.10
2018-07-19T19:18:00.382Z,25.00
2018-07-19T19:20:28.812Z,24.80
2018-07-19T19:22:57.262Z,24.70
2018-07-19T19:25:25.765Z,24.60
2018-07-19T19:27:54.234Z,24.60
2018-07-19T19:30:22.744Z,24.40
2018-07-19T19:35:19.495Z,24.20
2018-07-19T19:37:48.700Z,24.10
2018-07-19T19:40:17.193Z,23.90
2018-07-19T19:42:45.695Z,23.90
2018-07-19T19:45:14.150Z,23.80
2018-07-19T19:50:10.701Z,23.80
2018-07-19T19:52:39.140Z,23.80
2018-07-19T19:55:07.693Z,23.70
2018-07-19T19:57:36.165Z,23.60
2018-07-19T20:00:05.197Z,23.50
2018-07-19T20:02:33.665Z,23.50
2018-07-19T20:05:02.111Z,23.50
2018-07-19T20:07:30.561Z,23.50
2018-07-19T20:09:58.977Z,23.40
2018-07-19T20:12:27.568Z,23.30
2018-07-19T20:14:56.080Z,23.30
2018-07-19T20:17:24.530Z,23.20
2018-07-19T20:19:52.968Z,23.20
2018-07-19T20:22:21.408Z,23.10
2018-07-19T20:24:49.868Z,23.10
2018-07-19T20:27:18.530Z,23.00
2018-07-19T20:29:46.960Z,22.90
2018-07-19T20:32:15.501Z,22.80
2018-07-19T20:34:43.978Z,22.70
2018-07-19T20:37:12.476Z,22.70
2018-07-19T20:39:40.953Z,22.60
2018-07-19T20:42:09.741Z,22.50
2018-07-19T20:44:38.176Z,22.50
2018-07-19T20:47:06.768Z,22.40
2018-07-19T20:49:35.443Z,22.30
2018-07-19T20:52:03.922Z,22.20
2018-07-19T20:54:32.421Z,22.20
2018-07-19T20:57:00.844Z,22.00
2018-07-19T20:59:29.557Z,22.00
2018-07-19T21:01:57.945Z,22.00
2018-07-19T21:04:26.396Z,21.90
2018-07-19T21:06:54.892Z,21.90
2018-07-19T21:09:23.330Z,21.90
2018-07-19T21:11:51.956Z,21.80
2018-07-19T21:14:20.469Z,21.80
2018-07-19T21:19:16.976Z,21.60
2018-07-19T21:21:45.375Z,21.60
2018-07-19T21:24:13.820Z,21.50
2018-07-19T21:26:42.229Z,21.40
2018-07-19T21:29:10.718Z,21.40
2018-07-19T21:31:39.141Z,21.30
2018-07-19T21:34:07.702Z,21.20
2018-07-19T21:36:36.198Z,21.10
2018-07-19T21:39:07.650Z,21.00
2018-07-19T21:41:36.040Z,21.00
2018-07-19T21:44:04.558Z,21.00
2018-07-19T21:46:33.250Z,21.00
2018-07-19T21:49:01.791Z,20.90
2018-07-19T21:51:30.224Z,20.90
2018-07-19T21:53:58.975Z,20.90
2018-07-19T21:56:27.413Z,20.80
2018-07-19T21:58:55.833Z,20.80
2018-07-19T22:01:24.333Z,20.70
2018-07-19T22:03:52.946Z,20.70
2018-07-19T22:06:21.488Z,20.60
2018-07-19T22:08:49.904Z,20.60
2018-07-19T22:11:18.332Z,20.60
2018-07-19T22:13:46.720Z,20.50
2018-07-19T22:16:15.146Z,20.50
2018-07-19T22:18:43.578Z,20.50
2018-07-19T22:21:12.161Z,20.40
2018-07-19T22:23:40.660Z,20.40
2018-07-19T22:26:09.064Z,20.30
2018-07-19T22:28:37.638Z,20.30
2018-07-19T22:31:06.505Z,20.20
2018-07-19T22:33:34.905Z,20.20
2018-07-19T22:36:03.345Z,20.20
2018-07-19T22:38:31.945Z,20.20
2018-07-19T22:41:00.365Z,20.10
2018-07-19T22:43:28.733Z,20.10
2018-07-19T22:45:57.163Z,20.00
2018-07-19T22:48:25.713Z,20.00
2018-07-19T22:50:54.133Z,20.00
2018-07-19T22:53:22.581Z,19.90
2018-07-19T22:55:51.145Z,19.90
2018-07-19T22:58:19.557Z,19.90
2018-07-19T23:00:48.264Z,19.80
2018-07-19T23:03:16.949Z,19.80
2018-07-19T23:05:45.353Z,19.80
2018-07-19T23:08:13.856Z,19.80
2018-07-19T23:10:42.354Z,19.70
2018-07-19T23:13:11.390Z,19.60
2018-07-19T23:15:39.866Z,19.60
2018-07-19T23:18:08.247Z,19.60
2018-07-19T23:20:36.659Z,19.50
2018-07-19T23:23:05.180Z,19.40
2018-07-19T23:25:33.589Z,19.30
2018-07-19T23:28:02.020Z,19.30
2018-07-19T23:30:33.040Z,19.30
2018-07-19T23:33:01.482Z,19.30
2018-07-19T23:35:35.472Z,19.20
2018-07-19T23:38:06.901Z,19.20
2018-07-19T23:40:38.288Z,19.00
2018-07-19T23:43:11.192Z,18.90
2018-07-19T23:46:46.076Z,18.70
2018-07-19T23:49:14.563Z,18.60
2018-07-19T23:51:42.988Z,18.50
2018-07-19T23:54:11.377Z,18.40
2018-07-19T23:56:39.779Z,18.40
2018-07-19T23:59:08.289Z,18.30
